sensor_id;sensor_type;location;lat;lon;timestamp;P1;durP1;ratioP1;P2;durP2;ratioP2
22579;SDS011;11456;47.030;15.396;2024-02-21T00:01:18;14.70;;;5.97;;
22579;SDS011;11456;47.030;15.396;2024-02-21T00:03:46;11.05;;;5.63;;
22579;SDS011;11456;47.030;15.396;2024-02-21T00:06:13;13.10;;;5.63;;
22579;SDS011;11456;47.030;15.396;2024-02-21T00:08:40;12.30;;;6.20;;
22579;SDS011;11456;47.030;15.396;2024-02-21T00:11:06;11.77;;;5.75;;
22579;SDS011;11456;47.030;15.396;2024-02-21T00:13:34;10.65;;;4.97;;
22579;SDS011;11456;47.030;15.396;2024-02-21T00:16:01;10.20;;;5.30;;
22579;SDS011;11456;47.030;15.396;2024-02-21T00:18:28;11.07;;;5.57;;
22579;SDS011;11456;47.030;15.396;2024-02-21T00:20:56;14.00;;;5.30;;
22579;SDS011;11456;47.030;15.396;2024-02-21T00:23:22;11.82;;;4.93;;
22579;SDS011;11456;47.030;15.396;2024-02-21T00:25:49;8.68;;;4.35;;
22579;SDS011;11456;47.030;15.396;2024-02-21T00:28:16;12.70;;;4.80;;
22579;SDS011;11456;47.030;15.396;2024-02-21T00:30:43;11.55;;;5.32;;
22579;SDS011;11456;47.030;15.396;2024-02-21T00:33:10;9.15;;;5.10;;
22579;SDS011;11456;47.030;15.396;2024-02-21T00:35:37;12.10;;;4.68;;
22579;SDS011;11456;47.030;15.396;2024-02-21T00:38:04;8.40;;;5.10;;
22579;SDS011;11456;47.030;15.396;2024-02-21T00:40:31;13.60;;;5.25;;
22579;SDS011;11456;47.030;15.396;2024-02-21T00:42:58;10.77;;;4.97;;
22579;SDS011;11456;47.030;15.396;2024-02-21T00:45:25;9.13;;;4.70;;
22579;SDS011;11456;47.030;15.396;2024-02-21T00:47:51;12.80;;;5.15;;
22579;SDS011;11456;47.030;15.396;2024-02-21T00:50:18;13.20;;;5.60;;
22579;SDS011;11456;47.030;15.396;2024-02-21T00:52:45;10.88;;;5.65;;
22579;SDS011;11456;47.030;15.396;2024-02-21T00:55:12;10.15;;;4.78;;
22579;SDS011;11456;47.030;15.396;2024-02-21T00:57:39;10.55;;;5.35;;
22579;SDS011;11456;47.030;15.396;2024-02-21T01:00:06;11.48;;;5.32;;
22579;SDS011;11456;47.030;15.396;2024-02-21T01:02:34;11.27;;;5.05;;
22579;SDS011;11456;47.030;15.396;2024-02-21T01:05:01;12.02;;;5.55;;
22579;SDS011;11456;47.030;15.396;2024-02-21T01:07:28;17.55;;;6.00;;
22579;SDS011;11456;47.030;15.396;2024-02-21T01:09:55;12.43;;;4.90;;
22579;SDS011;11456;47.030;15.396;2024-02-21T01:12:22;8.63;;;5.18;;
22579;SDS011;11456;47.030;15.396;2024-02-21T01:14:49;10.70;;;5.28;;
22579;SDS011;11456;47.030;15.396;2024-02-21T01:17:15;13.80;;;5.57;;
22579;SDS011;11456;47.030;15.396;2024-02-21T01:19:42;9.27;;;4.68;;
22579;SDS011;11456;47.030;15.396;2024-02-21T01:22:09;14.13;;;5.30;;
22579;SDS011;11456;47.030;15.396;2024-02-21T01:24:36;11.18;;;5.25;;
22579;SDS011;11456;47.030;15.396;2024-02-21T01:27:02;11.82;;;5.18;;
22579;SDS011;11456;47.030;15.396;2024-02-21T01:29:29;11.93;;;5.00;;
22579;SDS011;11456;47.030;15.396;2024-02-21T01:31:56;10.55;;;4.93;;
22579;SDS011;11456;47.030;15.396;2024-02-21T01:34:23;10.80;;;5.07;;
22579;SDS011;11456;47.030;15.396;2024-02-21T01:36:50;10.63;;;4.85;;
22579;SDS011;11456;47.030;15.396;2024-02-21T01:39:16;10.43;;;5.15;;
22579;SDS011;11456;47.030;15.396;2024-02-21T01:41:43;11.93;;;5.22;;
22579;SDS011;11456;47.030;15.396;2024-02-21T01:44:10;16.25;;;5.93;;
22579;SDS011;11456;47.030;15.396;2024-02-21T01:46:37;13.02;;;5.60;;
22579;SDS011;11456;47.030;15.396;2024-02-21T01:49:04;17.15;;;6.20;;
22579;SDS011;11456;47.030;15.396;2024-02-21T01:51:31;15.23;;;5.85;;
22579;SDS011;11456;47.030;15.396;2024-02-21T01:53:58;15.52;;;6.15;;
22579;SDS011;11456;47.030;15.396;2024-02-21T01:56:25;12.05;;;6.05;;
22579;SDS011;11456;47.030;15.396;2024-02-21T01:58:53;11.90;;;5.55;;
22579;SDS011;11456;47.030;15.396;2024-02-21T02:01:22;10.70;;;5.18;;
22579;SDS011;11456;47.030;15.396;2024-02-21T02:03:49;10.93;;;5.85;;
22579;SDS011;11456;47.030;15.396;2024-02-21T02:06:16;12.68;;;5.82;;
22579;SDS011;11456;47.030;15.396;2024-02-21T02:08:43;15.85;;;6.65;;
22579;SDS011;11456;47.030;15.396;2024-02-21T02:11:10;17.83;;;7.32;;
22579;SDS011;11456;47.030;15.396;2024-02-21T02:13:40;14.95;;;7.07;;
22579;SDS011;11456;47.030;15.396;2024-02-21T02:16:06;16.02;;;6.80;;
22579;SDS011;11456;47.030;15.396;2024-02-21T02:18:33;19.23;;;7.88;;
22579;SDS011;11456;47.030;15.396;2024-02-21T02:21:00;21.13;;;8.15;;
22579;SDS011;11456;47.030;15.396;2024-02-21T02:23:30;23.42;;;8.13;;
22579;SDS011;11456;47.030;15.396;2024-02-21T02:25:58;21.98;;;8.45;;
22579;SDS011;11456;47.030;15.396;2024-02-21T02:28:25;16.58;;;7.65;;
22579;SDS011;11456;47.030;15.396;2024-02-21T02:30:53;20.08;;;8.25;;
22579;SDS011;11456;47.030;15.396;2024-02-21T02:33:19;16.63;;;7.47;;
22579;SDS011;11456;47.030;15.396;2024-02-21T02:35:47;18.13;;;8.00;;
22579;SDS011;11456;47.030;15.396;2024-02-21T02:38:13;18.40;;;8.10;;
22579;SDS011;11456;47.030;15.396;2024-02-21T02:40:41;17.63;;;7.75;;
22579;SDS011;11456;47.030;15.396;2024-02-21T02:43:08;18.73;;;7.90;;
22579;SDS011;11456;47.030;15.396;2024-02-21T02:45:35;19.50;;;8.18;;
22579;SDS011;11456;47.030;15.396;2024-02-21T02:48:02;22.50;;;7.78;;
22579;SDS011;11456;47.030;15.396;2024-02-21T02:50:29;15.25;;;7.90;;
22579;SDS011;11456;47.030;15.396;2024-02-21T02:52:57;19.80;;;8.05;;
22579;SDS011;11456;47.030;15.396;2024-02-21T02:55:24;20.85;;;8.30;;
22579;SDS011;11456;47.030;15.396;2024-02-21T02:57:52;19.65;;;7.35;;
22579;SDS011;11456;47.030;15.396;2024-02-21T03:00:19;15.05;;;7.90;;
22579;SDS011;11456;47.030;15.396;2024-02-21T03:02:46;17.95;;;7.70;;
22579;SDS011;11456;47.030;15.396;2024-02-21T03:05:15;18.65;;;7.43;;
22579;SDS011;11456;47.030;15.396;2024-02-21T03:07:44;16.25;;;7.35;;
22579;SDS011;11456;47.030;15.396;2024-02-21T03:10:11;17.42;;;6.50;;
22579;SDS011;11456;47.030;15.396;2024-02-21T03:12:39;13.40;;;6.82;;
22579;SDS011;11456;47.030;15.396;2024-02-21T03:15:06;12.35;;;6.15;;
22579;SDS011;11456;47.030;15.396;2024-02-21T03:17:33;12.75;;;5.75;;
22579;SDS011;11456;47.030;15.396;2024-02-21T03:20:03;19.05;;;6.28;;
22579;SDS011;11456;47.030;15.396;2024-02-21T03:22:39;16.33;;;5.63;;
22579;SDS011;11456;47.030;15.396;2024-02-21T03:25:07;13.55;;;6.13;;
22579;SDS011;11456;47.030;15.396;2024-02-21T03:27:37;13.35;;;6.13;;
22579;SDS011;11456;47.030;15.396;2024-02-21T03:30:04;14.18;;;6.03;;
22579;SDS011;11456;47.030;15.396;2024-02-21T03:32:31;16.55;;;6.30;;
22579;SDS011;11456;47.030;15.396;2024-02-21T03:34:58;20.40;;;6.85;;
22579;SDS011;11456;47.030;15.396;2024-02-21T03:37:25;14.75;;;6.05;;
22579;SDS011;11456;47.030;15.396;2024-02-21T03:39:52;14.45;;;6.40;;
22579;SDS011;11456;47.030;15.396;2024-02-21T03:42:19;14.23;;;5.68;;
22579;SDS011;11456;47.030;15.396;2024-02-21T03:44:45;13.43;;;6.40;;
22579;SDS011;11456;47.030;15.396;2024-02-21T03:47:12;15.55;;;6.13;;
22579;SDS011;11456;47.030;15.396;2024-02-21T03:49:39;13.05;;;5.63;;
22579;SDS011;11456;47.030;15.396;2024-02-21T03:52:06;13.55;;;6.20;;
22579;SDS011;11456;47.030;15.396;2024-02-21T03:54:33;14.70;;;6.53;;
22579;SDS011;11456;47.030;15.396;2024-02-21T03:56:59;19.20;;;6.47;;
22579;SDS011;11456;47.030;15.396;2024-02-21T03:59:26;15.45;;;6.35;;
22579;SDS011;11456;47.030;15.396;2024-02-21T04:01:53;17.17;;;6.28;;
22579;SDS011;11456;47.030;15.396;2024-02-21T04:04:20;15.93;;;6.13;;
22579;SDS011;11456;47.030;15.396;2024-02-21T04:06:50;15.50;;;6.50;;
22579;SDS011;11456;47.030;15.396;2024-02-21T04:09:17;12.48;;;5.93;;
22579;SDS011;11456;47.030;15.396;2024-02-21T04:11:44;12.63;;;5.85;;
22579;SDS011;11456;47.030;15.396;2024-02-21T04:14:11;19.10;;;6.07;;
22579;SDS011;11456;47.030;15.396;2024-02-21T04:16:38;12.55;;;5.90;;
22579;SDS011;11456;47.030;15.396;2024-02-21T04:19:06;15.18;;;6.28;;
22579;SDS011;11456;47.030;15.396;2024-02-21T04:21:33;21.15;;;7.15;;
22579;SDS011;11456;47.030;15.396;2024-02-21T04:23:59;18.50;;;7.50;;
22579;SDS011;11456;47.030;15.396;2024-02-21T04:26:28;15.10;;;6.70;;
22579;SDS011;11456;47.030;15.396;2024-02-21T04:28:54;14.73;;;7.90;;
22579;SDS011;11456;47.030;15.396;2024-02-21T04:31:22;16.13;;;7.15;;
22579;SDS011;11456;47.030;15.396;2024-02-21T04:33:48;19.30;;;7.47;;
22579;SDS011;11456;47.030;15.396;2024-02-21T04:36:15;21.65;;;7.57;;
22579;SDS011;11456;47.030;15.396;2024-02-21T04:38:42;20.70;;;7.55;;
22579;SDS011;11456;47.030;15.396;2024-02-21T04:41:08;20.15;;;6.32;;
22579;SDS011;11456;47.030;15.396;2024-02-21T04:43:35;15.02;;;6.60;;
22579;SDS011;11456;47.030;15.396;2024-02-21T04:46:02;18.65;;;6.85;;
22579;SDS011;11456;47.030;15.396;2024-02-21T04:48:29;17.73;;;7.07;;
22579;SDS011;11456;47.030;15.396;2024-02-21T04:50:55;16.98;;;7.10;;
22579;SDS011;11456;47.030;15.396;2024-02-21T04:53:22;21.30;;;7.60;;
22579;SDS011;11456;47.030;15.396;2024-02-21T04:55:49;12.10;;;6.82;;
22579;SDS011;11456;47.030;15.396;2024-02-21T04:58:16;20.27;;;7.50;;
22579;SDS011;11456;47.030;15.396;2024-02-21T05:00:42;17.15;;;7.30;;
22579;SDS011;11456;47.030;15.396;2024-02-21T05:03:09;15.63;;;7.18;;
22579;SDS011;11456;47.030;15.396;2024-02-21T05:05:36;17.10;;;7.65;;
22579;SDS011;11456;47.030;15.396;2024-02-21T05:08:03;19.50;;;7.65;;
22579;SDS011;11456;47.030;15.396;2024-02-21T05:10:30;20.27;;;7.20;;
22579;SDS011;11456;47.030;15.396;2024-02-21T05:12:57;23.35;;;7.63;;
22579;SDS011;11456;47.030;15.396;2024-02-21T05:15:25;16.25;;;7.82;;
22579;SDS011;11456;47.030;15.396;2024-02-21T05:17:51;24.13;;;8.27;;
22579;SDS011;11456;47.030;15.396;2024-02-21T05:20:19;24.08;;;7.32;;
22579;SDS011;11456;47.030;15.396;2024-02-21T05:22:46;14.43;;;7.13;;
22579;SDS011;11456;47.030;15.396;2024-02-21T05:25:13;14.80;;;7.15;;
22579;SDS011;11456;47.030;15.396;2024-02-21T05:27:39;20.75;;;7.80;;
22579;SDS011;11456;47.030;15.396;2024-02-21T05:30:06;22.23;;;7.32;;
22579;SDS011;11456;47.030;15.396;2024-02-21T05:32:33;24.60;;;8.45;;
22579;SDS011;11456;47.030;15.396;2024-02-21T05:35:00;16.63;;;7.55;;
22579;SDS011;11456;47.030;15.396;2024-02-21T05:37:27;19.88;;;7.85;;
22579;SDS011;11456;47.030;15.396;2024-02-21T05:39:54;14.45;;;7.28;;
22579;SDS011;11456;47.030;15.396;2024-02-21T05:42:20;17.33;;;7.43;;
22579;SDS011;11456;47.030;15.396;2024-02-21T05:44:47;17.73;;;7.82;;
22579;SDS011;11456;47.030;15.396;2024-02-21T05:47:13;15.95;;;7.82;;
22579;SDS011;11456;47.030;15.396;2024-02-21T05:49:41;16.75;;;7.47;;
22579;SDS011;11456;47.030;15.396;2024-02-21T05:52:09;15.80;;;7.15;;
22579;SDS011;11456;47.030;15.396;2024-02-21T05:54:37;20.48;;;7.97;;
22579;SDS011;11456;47.030;15.396;2024-02-21T05:57:06;28.45;;;7.70;;
22579;SDS011;11456;47.030;15.396;2024-02-21T05:59:34;34.33;;;8.48;;
22579;SDS011;11456;47.030;15.396;2024-02-21T06:02:02;32.05;;;8.02;;
22579;SDS011;11456;47.030;15.396;2024-02-21T06:04:30;21.63;;;8.90;;
22579;SDS011;11456;47.030;15.396;2024-02-21T06:06:57;22.45;;;7.65;;
22579;SDS011;11456;47.030;15.396;2024-02-21T06:09:24;19.08;;;7.28;;
22579;SDS011;11456;47.030;15.396;2024-02-21T06:11:51;19.30;;;7.72;;
22579;SDS011;11456;47.030;15.396;2024-02-21T06:14:18;18.40;;;8.07;;
22579;SDS011;11456;47.030;15.396;2024-02-21T06:16:44;22.13;;;8.25;;
22579;SDS011;11456;47.030;15.396;2024-02-21T06:19:11;17.70;;;8.27;;
22579;SDS011;11456;47.030;15.396;2024-02-21T06:21:38;19.10;;;8.85;;
22579;SDS011;11456;47.030;15.396;2024-02-21T06:24:05;26.63;;;8.25;;
22579;SDS011;11456;47.030;15.396;2024-02-21T06:26:32;19.40;;;7.00;;
22579;SDS011;11456;47.030;15.396;2024-02-21T06:29:03;31.80;;;7.70;;
22579;SDS011;11456;47.030;15.396;2024-02-21T06:31:30;30.95;;;8.60;;
22579;SDS011;11456;47.030;15.396;2024-02-21T06:33:58;22.83;;;8.20;;
22579;SDS011;11456;47.030;15.396;2024-02-21T06:36:25;24.25;;;8.55;;
22579;SDS011;11456;47.030;15.396;2024-02-21T06:38:51;27.25;;;8.02;;
22579;SDS011;11456;47.030;15.396;2024-02-21T06:41:18;24.20;;;8.23;;
22579;SDS011;11456;47.030;15.396;2024-02-21T06:43:46;23.08;;;8.32;;
22579;SDS011;11456;47.030;15.396;2024-02-21T06:46:23;22.35;;;7.68;;
22579;SDS011;11456;47.030;15.396;2024-02-21T06:48:55;16.25;;;7.47;;
22579;SDS011;11456;47.030;15.396;2024-02-21T06:51:23;24.00;;;8.43;;
22579;SDS011;11456;47.030;15.396;2024-02-21T06:53:51;21.33;;;7.47;;
22579;SDS011;11456;47.030;15.396;2024-02-21T06:56:18;20.40;;;7.72;;
22579;SDS011;11456;47.030;15.396;2024-02-21T06:58:45;16.88;;;7.07;;
22579;SDS011;11456;47.030;15.396;2024-02-21T07:01:12;25.83;;;7.85;;
22579;SDS011;11456;47.030;15.396;2024-02-21T07:03:39;24.95;;;7.30;;
22579;SDS011;11456;47.030;15.396;2024-02-21T07:06:06;20.45;;;8.02;;
22579;SDS011;11456;47.030;15.396;2024-02-21T07:08:33;29.60;;;8.57;;
22579;SDS011;11456;47.030;15.396;2024-02-21T07:11:00;26.35;;;7.50;;
22579;SDS011;11456;47.030;15.396;2024-02-21T07:13:26;23.10;;;7.43;;
22579;SDS011;11456;47.030;15.396;2024-02-21T07:15:53;31.13;;;7.57;;
22579;SDS011;11456;47.030;15.396;2024-02-21T07:18:20;23.33;;;8.27;;
22579;SDS011;11456;47.030;15.396;2024-02-21T07:20:47;17.63;;;6.22;;
22579;SDS011;11456;47.030;15.396;2024-02-21T07:23:14;18.58;;;7.07;;
22579;SDS011;11456;47.030;15.396;2024-02-21T07:25:40;21.35;;;6.05;;
22579;SDS011;11456;47.030;15.396;2024-02-21T07:28:07;15.88;;;6.38;;
22579;SDS011;11456;47.030;15.396;2024-02-21T07:30:34;20.63;;;6.00;;
22579;SDS011;11456;47.030;15.396;2024-02-21T07:33:01;16.40;;;5.60;;
22579;SDS011;11456;47.030;15.396;2024-02-21T07:35:28;13.82;;;5.90;;
22579;SDS011;11456;47.030;15.396;2024-02-21T07:37:55;18.58;;;6.28;;
22579;SDS011;11456;47.030;15.396;2024-02-21T07:40:22;27.58;;;6.97;;
22579;SDS011;11456;47.030;15.396;2024-02-21T07:42:49;13.45;;;6.13;;
22579;SDS011;11456;47.030;15.396;2024-02-21T07:45:17;22.35;;;7.53;;
22579;SDS011;11456;47.030;15.396;2024-02-21T07:47:45;18.67;;;6.10;;
22579;SDS011;11456;47.030;15.396;2024-02-21T07:50:12;19.55;;;6.90;;
22579;SDS011;11456;47.030;15.396;2024-02-21T07:52:39;24.65;;;6.90;;
22579;SDS011;11456;47.030;15.396;2024-02-21T07:55:06;16.55;;;6.70;;
22579;SDS011;11456;47.030;15.396;2024-02-21T07:57:32;19.08;;;5.88;;
22579;SDS011;11456;47.030;15.396;2024-02-21T07:59:59;21.70;;;7.10;;
22579;SDS011;11456;47.030;15.396;2024-02-21T08:02:26;15.77;;;5.88;;
22579;SDS011;11456;47.030;15.396;2024-02-21T08:04:53;13.35;;;6.20;;
22579;SDS011;11456;47.030;15.396;2024-02-21T08:07:19;16.00;;;5.80;;
22579;SDS011;11456;47.030;15.396;2024-02-21T08:09:46;27.25;;;6.18;;
22579;SDS011;11456;47.030;15.396;2024-02-21T08:12:13;21.00;;;5.65;;
22579;SDS011;11456;47.030;15.396;2024-02-21T08:14:39;16.15;;;6.10;;
22579;SDS011;11456;47.030;15.396;2024-02-21T08:17:07;17.80;;;6.10;;
22579;SDS011;11456;47.030;15.396;2024-02-21T08:19:34;12.15;;;5.50;;
22579;SDS011;11456;47.030;15.396;2024-02-21T08:22:01;13.30;;;5.90;;
22579;SDS011;11456;47.030;15.396;2024-02-21T08:24:27;14.98;;;5.65;;
22579;SDS011;11456;47.030;15.396;2024-02-21T08:26:54;14.25;;;5.03;;
22579;SDS011;11456;47.030;15.396;2024-02-21T08:29:21;14.60;;;5.03;;
22579;SDS011;11456;47.030;15.396;2024-02-21T08:31:48;12.40;;;4.80;;
22579;SDS011;11456;47.030;15.396;2024-02-21T08:34:15;12.82;;;4.57;;
22579;SDS011;11456;47.030;15.396;2024-02-21T08:36:42;25.40;;;5.95;;
22579;SDS011;11456;47.030;15.396;2024-02-21T08:39:09;24.83;;;6.18;;
22579;SDS011;11456;47.030;15.396;2024-02-21T08:41:36;35.65;;;7.07;;
22579;SDS011;11456;47.030;15.396;2024-02-21T08:44:22;19.83;;;6.18;;
22579;SDS011;11456;47.030;15.396;2024-02-21T08:46:54;16.60;;;5.97;;
22579;SDS011;11456;47.030;15.396;2024-02-21T08:49:21;16.30;;;5.55;;
22579;SDS011;11456;47.030;15.396;2024-02-21T08:51:48;13.95;;;5.72;;
22579;SDS011;11456;47.030;15.396;2024-02-21T08:54:15;24.08;;;6.85;;
22579;SDS011;11456;47.030;15.396;2024-02-21T08:56:42;20.85;;;5.97;;
22579;SDS011;11456;47.030;15.396;2024-02-21T08:59:08;18.10;;;5.95;;
22579;SDS011;11456;47.030;15.396;2024-02-21T09:01:35;24.85;;;6.65;;
22579;SDS011;11456;47.030;15.396;2024-02-21T09:04:03;25.98;;;7.20;;
22579;SDS011;11456;47.030;15.396;2024-02-21T09:06:30;23.55;;;6.03;;
22579;SDS011;11456;47.030;15.396;2024-02-21T09:08:58;21.85;;;6.93;;
22579;SDS011;11456;47.030;15.396;2024-02-21T09:11:25;18.60;;;6.20;;
22579;SDS011;11456;47.030;15.396;2024-02-21T09:13:54;15.57;;;5.30;;
22579;SDS011;11456;47.030;15.396;2024-02-21T09:16:21;16.48;;;5.07;;
22579;SDS011;11456;47.030;15.396;2024-02-21T09:18:49;32.85;;;6.18;;
22579;SDS011;11456;47.030;15.396;2024-02-21T09:21:16;14.43;;;3.75;;
22579;SDS011;11456;47.030;15.396;2024-02-21T09:23:43;15.07;;;5.05;;
22579;SDS011;11456;47.030;15.396;2024-02-21T09:26:11;19.20;;;5.90;;
22579;SDS011;11456;47.030;15.396;2024-02-21T09:28:42;21.15;;;7.15;;
22579;SDS011;11456;47.030;15.396;2024-02-21T09:31:12;25.38;;;6.35;;
22579;SDS011;11456;47.030;15.396;2024-02-21T09:33:38;19.70;;;5.88;;
22579;SDS011;11456;47.030;15.396;2024-02-21T09:36:05;18.20;;;6.47;;
22579;SDS011;11456;47.030;15.396;2024-02-21T09:38:32;22.13;;;6.53;;
22579;SDS011;11456;47.030;15.396;2024-02-21T09:41:00;19.45;;;4.95;;
22579;SDS011;11456;47.030;15.396;2024-02-21T09:43:35;22.90;;;6.15;;
22579;SDS011;11456;47.030;15.396;2024-02-21T09:46:05;23.50;;;6.72;;
22579;SDS011;11456;47.030;15.396;2024-02-21T09:48:39;21.80;;;6.78;;
22579;SDS011;11456;47.030;15.396;2024-02-21T09:51:18;20.10;;;6.47;;
22579;SDS011;11456;47.030;15.396;2024-02-21T09:53:47;18.42;;;6.32;;
22579;SDS011;11456;47.030;15.396;2024-02-21T09:56:28;20.73;;;6.60;;
22579;SDS011;11456;47.030;15.396;2024-02-21T09:58:54;21.65;;;6.10;;
22579;SDS011;11456;47.030;15.396;2024-02-21T10:01:22;18.90;;;5.72;;
22579;SDS011;11456;47.030;15.396;2024-02-21T10:04:00;15.10;;;4.80;;
22579;SDS011;11456;47.030;15.396;2024-02-21T10:06:29;18.92;;;4.90;;
22579;SDS011;11456;47.030;15.396;2024-02-21T10:08:56;17.60;;;5.30;;
22579;SDS011;11456;47.030;15.396;2024-02-21T10:11:23;18.67;;;5.30;;
22579;SDS011;11456;47.030;15.396;2024-02-21T10:13:51;19.02;;;5.00;;
22579;SDS011;11456;47.030;15.396;2024-02-21T10:16:18;13.65;;;4.43;;
22579;SDS011;11456;47.030;15.396;2024-02-21T10:18:44;12.32;;;4.18;;
22579;SDS011;11456;47.030;15.396;2024-02-21T10:21:11;19.85;;;4.53;;
22579;SDS011;11456;47.030;15.396;2024-02-21T10:26:09;20.58;;;4.68;;
22579;SDS011;11456;47.030;15.396;2024-02-21T10:28:36;31.98;;;4.82;;
22579;SDS011;11456;47.030;15.396;2024-02-21T10:31:08;23.08;;;4.60;;
22579;SDS011;11456;47.030;15.396;2024-02-21T10:33:37;13.93;;;4.13;;
22579;SDS011;11456;47.030;15.396;2024-02-21T10:36:08;20.08;;;4.40;;
22579;SDS011;11456;47.030;15.396;2024-02-21T10:38:39;16.50;;;4.07;;
22579;SDS011;11456;47.030;15.396;2024-02-21T10:41:06;24.10;;;4.20;;
22579;SDS011;11456;47.030;15.396;2024-02-21T10:43:37;17.73;;;4.15;;
22579;SDS011;11456;47.030;15.396;2024-02-21T10:46:08;14.95;;;4.07;;
22579;SDS011;11456;47.030;15.396;2024-02-21T10:48:41;20.67;;;4.28;;
22579;SDS011;11456;47.030;15.396;2024-02-21T10:51:17;16.52;;;3.50;;
22579;SDS011;11456;47.030;15.396;2024-02-21T10:58:49;18.70;;;4.25;;
22579;SDS011;11456;47.030;15.396;2024-02-21T11:01:17;15.80;;;4.13;;
22579;SDS011;11456;47.030;15.396;2024-02-21T11:03:45;12.80;;;3.65;;
22579;SDS011;11456;47.030;15.396;2024-02-21T11:06:13;7.40;;;2.40;;
22579;SDS011;11456;47.030;15.396;2024-02-21T11:08:41;11.93;;;3.10;;
22579;SDS011;11456;47.030;15.396;2024-02-21T11:11:08;12.02;;;3.70;;
22579;SDS011;11456;47.030;15.396;2024-02-21T11:13:49;15.40;;;3.50;;
22579;SDS011;11456;47.030;15.396;2024-02-21T11:16:22;6.50;;;3.35;;
22579;SDS011;11456;47.030;15.396;2024-02-21T11:18:49;20.85;;;3.78;;
22579;SDS011;11456;47.030;15.396;2024-02-21T11:21:16;8.45;;;2.97;;
22579;SDS011;11456;47.030;15.396;2024-02-21T11:23:43;18.02;;;3.80;;
22579;SDS011;11456;47.030;15.396;2024-02-21T11:26:10;19.17;;;3.45;;
22579;SDS011;11456;47.030;15.396;2024-02-21T11:28:55;7.30;;;2.90;;
22579;SDS011;11456;47.030;15.396;2024-02-21T11:31:23;7.50;;;3.53;;
22579;SDS011;11456;47.030;15.396;2024-02-21T11:33:49;11.25;;;3.25;;
22579;SDS011;11456;47.030;15.396;2024-02-21T11:36:27;9.98;;;2.83;;
22579;SDS011;11456;47.030;15.396;2024-02-21T11:38:53;12.85;;;3.00;;
22579;SDS011;11456;47.030;15.396;2024-02-21T11:41:20;6.53;;;2.42;;
22579;SDS011;11456;47.030;15.396;2024-02-21T11:43:50;8.48;;;2.88;;
22579;SDS011;11456;47.030;15.396;2024-02-21T11:46:19;7.05;;;2.60;;
22579;SDS011;11456;47.030;15.396;2024-02-21T11:48:46;9.93;;;3.10;;
22579;SDS011;11456;47.030;15.396;2024-02-21T11:51:25;7.45;;;2.33;;
22579;SDS011;11456;47.030;15.396;2024-02-21T11:53:52;6.45;;;2.15;;
22579;SDS011;11456;47.030;15.396;2024-02-21T11:56:27;5.57;;;2.40;;
22579;SDS011;11456;47.030;15.396;2024-02-21T11:58:54;14.95;;;3.13;;
22579;SDS011;11456;47.030;15.396;2024-02-21T12:01:21;13.35;;;3.00;;
22579;SDS011;11456;47.030;15.396;2024-02-21T12:03:47;4.95;;;2.17;;
22579;SDS011;11456;47.030;15.396;2024-02-21T12:06:16;15.95;;;3.08;;
22579;SDS011;11456;47.030;15.396;2024-02-21T12:08:48;7.28;;;2.60;;
22579;SDS011;11456;47.030;15.396;2024-02-21T12:11:19;14.82;;;2.85;;
22579;SDS011;11456;47.030;15.396;2024-02-21T12:13:57;7.00;;;2.50;;
22579;SDS011;11456;47.030;15.396;2024-02-21T12:16:27;5.47;;;2.42;;
22579;SDS011;11456;47.030;15.396;2024-02-21T12:18:55;6.75;;;2.30;;
22579;SDS011;11456;47.030;15.396;2024-02-21T12:21:24;6.45;;;2.25;;
22579;SDS011;11456;47.030;15.396;2024-02-21T12:23:51;7.82;;;2.80;;
22579;SDS011;11456;47.030;15.396;2024-02-21T12:26:18;8.00;;;2.70;;
22579;SDS011;11456;47.030;15.396;2024-02-21T12:28:47;12.27;;;2.70;;
22579;SDS011;11456;47.030;15.396;2024-02-21T12:31:13;9.52;;;2.38;;
22579;SDS011;11456;47.030;15.396;2024-02-21T12:33:40;13.43;;;2.72;;
22579;SDS011;11456;47.030;15.396;2024-02-21T12:36:07;3.78;;;2.20;;
22579;SDS011;11456;47.030;15.396;2024-02-21T12:38:35;6.32;;;2.55;;
22579;SDS011;11456;47.030;15.396;2024-02-21T12:41:02;7.30;;;2.10;;
22579;SDS011;11456;47.030;15.396;2024-02-21T12:43:29;10.10;;;2.45;;
22579;SDS011;11456;47.030;15.396;2024-02-21T12:45:56;13.05;;;2.35;;
22579;SDS011;11456;47.030;15.396;2024-02-21T12:48:23;5.38;;;2.08;;
22579;SDS011;11456;47.030;15.396;2024-02-21T12:50:50;5.72;;;2.03;;
22579;SDS011;11456;47.030;15.396;2024-02-21T12:53:20;3.85;;;1.60;;
22579;SDS011;11456;47.030;15.396;2024-02-21T12:55:58;8.85;;;2.30;;
22579;SDS011;11456;47.030;15.396;2024-02-21T12:58:25;77.78;;;7.90;;
22579;SDS011;11456;47.030;15.396;2024-02-21T13:00:52;6.72;;;1.98;;
22579;SDS011;11456;47.030;15.396;2024-02-21T13:03:19;7.78;;;1.92;;
22579;SDS011;11456;47.030;15.396;2024-02-21T13:05:47;6.97;;;2.03;;
22579;SDS011;11456;47.030;15.396;2024-02-21T13:08:14;8.63;;;2.08;;
22579;SDS011;11456;47.030;15.396;2024-02-21T13:10:41;6.47;;;1.80;;
22579;SDS011;11456;47.030;15.396;2024-02-21T13:13:08;9.45;;;2.20;;
22579;SDS011;11456;47.030;15.396;2024-02-21T13:15:35;4.38;;;1.50;;
22579;SDS011;11456;47.030;15.396;2024-02-21T13:18:03;5.28;;;2.00;;
22579;SDS011;11456;47.030;15.396;2024-02-21T13:20:30;5.95;;;2.05;;
22579;SDS011;11456;47.030;15.396;2024-02-21T13:22:57;4.90;;;1.90;;
22579;SDS011;11456;47.030;15.396;2024-02-21T13:25:24;14.73;;;2.22;;
22579;SDS011;11456;47.030;15.396;2024-02-21T13:27:50;7.97;;;1.88;;
22579;SDS011;11456;47.030;15.396;2024-02-21T13:30:17;4.35;;;1.80;;
22579;SDS011;11456;47.030;15.396;2024-02-21T13:32:44;2.97;;;1.77;;
22579;SDS011;11456;47.030;15.396;2024-02-21T13:35:14;3.97;;;1.85;;
22579;SDS011;11456;47.030;15.396;2024-02-21T13:37:41;6.88;;;1.63;;
22579;SDS011;11456;47.030;15.396;2024-02-21T13:40:08;4.22;;;1.70;;
22579;SDS011;11456;47.030;15.396;2024-02-21T13:42:35;12.73;;;1.98;;
22579;SDS011;11456;47.030;15.396;2024-02-21T13:45:06;4.32;;;1.90;;
22579;SDS011;11456;47.030;15.396;2024-02-21T13:47:33;7.95;;;1.70;;
22579;SDS011;11456;47.030;15.396;2024-02-21T13:50:00;7.88;;;2.00;;
22579;SDS011;11456;47.030;15.396;2024-02-21T13:52:27;3.28;;;1.58;;
22579;SDS011;11456;47.030;15.396;2024-02-21T13:54:54;7.57;;;2.05;;
22579;SDS011;11456;47.030;15.396;2024-02-21T13:57:21;9.32;;;1.75;;
22579;SDS011;11456;47.030;15.396;2024-02-21T13:59:47;6.50;;;2.03;;
22579;SDS011;11456;47.030;15.396;2024-02-21T14:02:14;3.40;;;1.67;;
22579;SDS011;11456;47.030;15.396;2024-02-21T14:04:41;2.97;;;1.23;;
22579;SDS011;11456;47.030;15.396;2024-02-21T14:07:09;6.72;;;1.60;;
22579;SDS011;11456;47.030;15.396;2024-02-21T14:09:35;4.72;;;1.88;;
22579;SDS011;11456;47.030;15.396;2024-02-21T14:12:02;4.82;;;1.40;;
22579;SDS011;11456;47.030;15.396;2024-02-21T14:14:29;7.63;;;1.50;;
22579;SDS011;11456;47.030;15.396;2024-02-21T14:16:56;6.75;;;1.40;;
22579;SDS011;11456;47.030;15.396;2024-02-21T14:19:23;7.95;;;1.90;;
22579;SDS011;11456;47.030;15.396;2024-02-21T14:21:49;10.20;;;1.63;;
22579;SDS011;11456;47.030;15.396;2024-02-21T14:24:16;6.78;;;1.20;;
22579;SDS011;11456;47.030;15.396;2024-02-21T14:26:43;2.83;;;1.17;;
22579;SDS011;11456;47.030;15.396;2024-02-21T14:29:09;16.50;;;1.83;;
22579;SDS011;11456;47.030;15.396;2024-02-21T14:31:36;4.60;;;1.50;;
22579;SDS011;11456;47.030;15.396;2024-02-21T14:34:03;3.08;;;1.60;;